sensor_id;sensor_type;location;lat;lon;timestamp;P1;durP1;ratioP1;P2;durP2;ratioP2
56141;SDS011;42018;48.588;10.836;2024-03-02T00:01:50;13.13;;;8.60;;
56141;SDS011;42018;48.588;10.836;2024-03-02T00:04:35;11.65;;;8.23;;
56141;SDS011;42018;48.588;10.836;2024-03-02T00:07:21;12.23;;;8.88;;
56141;SDS011;42018;48.588;10.836;2024-03-02T00:10:07;13.05;;;9.25;;
56141;SDS011;42018;48.588;10.836;2024-03-02T00:12:58;15.52;;;9.43;;
56141;SDS011;42018;48.588;10.836;2024-03-02T00:15:47;15.55;;;11.07;;
56141;SDS011;42018;48.588;10.836;2024-03-02T00:18:35;14.57;;;10.95;;
56141;SDS011;42018;48.588;10.836;2024-03-02T00:21:24;12.77;;;9.32;;
56141;SDS011;42018;48.588;10.836;2024-03-02T00:24:21;14.25;;;10.23;;
56141;SDS011;42018;48.588;10.836;2024-03-02T00:27:16;14.95;;;10.95;;
56141;SDS011;42018;48.588;10.836;2024-03-02T00:30:06;13.07;;;9.38;;
56141;SDS011;42018;48.588;10.836;2024-03-02T00:33:17;14.63;;;10.43;;
56141;SDS011;42018;48.588;10.836;2024-03-02T00:36:04;16.98;;;11.68;;
56141;SDS011;42018;48.588;10.836;2024-03-02T00:38:52;14.45;;;10.70;;
56141;SDS011;42018;48.588;10.836;2024-03-02T00:41:40;15.02;;;10.82;;
56141;SDS011;42018;48.588;10.836;2024-03-02T00:44:27;15.45;;;11.38;;
56141;SDS011;42018;48.588;10.836;2024-03-02T00:47:16;14.35;;;10.18;;
56141;SDS011;42018;48.588;10.836;2024-03-02T00:50:01;14.15;;;10.43;;
56141;SDS011;42018;48.588;10.836;2024-03-02T00:52:47;15.00;;;11.60;;
56141;SDS011;42018;48.588;10.836;2024-03-02T00:55:36;15.70;;;11.43;;
56141;SDS011;42018;48.588;10.836;2024-03-02T00:58:22;15.52;;;10.27;;
56141;SDS011;42018;48.588;10.836;2024-03-02T01:01:07;14.98;;;11.05;;
56141;SDS011;42018;48.588;10.836;2024-03-02T01:03:54;18.70;;;11.82;;
56141;SDS011;42018;48.588;10.836;2024-03-02T01:06:40;14.40;;;11.75;;
56141;SDS011;42018;48.588;10.836;2024-03-02T01:09:26;17.27;;;12.65;;
56141;SDS011;42018;48.588;10.836;2024-03-02T01:12:12;17.60;;;11.68;;
56141;SDS011;42018;48.588;10.836;2024-03-02T01:14:57;17.25;;;12.50;;
56141;SDS011;42018;48.588;10.836;2024-03-02T01:17:43;14.75;;;10.65;;
56141;SDS011;42018;48.588;10.836;2024-03-02T01:20:28;14.30;;;11.05;;
56141;SDS011;42018;48.588;10.836;2024-03-02T01:23:14;16.70;;;12.70;;
56141;SDS011;42018;48.588;10.836;2024-03-02T01:25:59;17.80;;;11.55;;
56141;SDS011;42018;48.588;10.836;2024-03-02T01:28:45;17.92;;;12.32;;
56141;SDS011;42018;48.588;10.836;2024-03-02T01:31:30;17.33;;;12.10;;
56141;SDS011;42018;48.588;10.836;2024-03-02T01:34:16;19.10;;;12.95;;
56141;SDS011;42018;48.588;10.836;2024-03-02T01:37:01;15.93;;;11.90;;
56141;SDS011;42018;48.588;10.836;2024-03-02T01:39:47;15.13;;;11.18;;
56141;SDS011;42018;48.588;10.836;2024-03-02T01:42:32;17.13;;;12.13;;
56141;SDS011;42018;48.588;10.836;2024-03-02T01:45:18;16.05;;;12.00;;
56141;SDS011;42018;48.588;10.836;2024-03-02T01:48:07;17.23;;;12.32;;
56141;SDS011;42018;48.588;10.836;2024-03-02T01:50:52;16.63;;;12.23;;
56141;SDS011;42018;48.588;10.836;2024-03-02T01:53:38;16.67;;;11.95;;
56141;SDS011;42018;48.588;10.836;2024-03-02T01:56:23;17.60;;;11.60;;
56141;SDS011;42018;48.588;10.836;2024-03-02T01:59:09;17.60;;;11.75;;
56141;SDS011;42018;48.588;10.836;2024-03-02T02:01:54;16.23;;;11.23;;
56141;SDS011;42018;48.588;10.836;2024-03-02T02:04:40;16.25;;;12.00;;
56141;SDS011;42018;48.588;10.836;2024-03-02T02:07:25;18.13;;;11.25;;
56141;SDS011;42018;48.588;10.836;2024-03-02T02:10:11;16.65;;;12.07;;
56141;SDS011;42018;48.588;10.836;2024-03-02T02:12:57;17.35;;;11.23;;
56141;SDS011;42018;48.588;10.836;2024-03-02T02:15:42;15.90;;;10.75;;
56141;SDS011;42018;48.588;10.836;2024-03-02T02:18:28;15.90;;;11.85;;
56141;SDS011;42018;48.588;10.836;2024-03-02T02:21:13;14.50;;;11.25;;
56141;SDS011;42018;48.588;10.836;2024-03-02T02:23:59;15.65;;;11.20;;
56141;SDS011;42018;48.588;10.836;2024-03-02T02:26:44;15.38;;;10.73;;
56141;SDS011;42018;48.588;10.836;2024-03-02T02:29:30;15.13;;;11.18;;
56141;SDS011;42018;48.588;10.836;2024-03-02T02:32:15;14.23;;;10.85;;
56141;SDS011;42018;48.588;10.836;2024-03-02T02:35:02;12.93;;;9.20;;
56141;SDS011;42018;48.588;10.836;2024-03-02T02:37:48;14.88;;;9.98;;
56141;SDS011;42018;48.588;10.836;2024-03-02T02:40:35;15.27;;;11.32;;
56141;SDS011;42018;48.588;10.836;2024-03-02T02:43:21;16.10;;;11.23;;
56141;SDS011;42018;48.588;10.836;2024-03-02T02:46:06;14.50;;;10.25;;
56141;SDS011;42018;48.588;10.836;2024-03-02T02:48:52;14.52;;;11.07;;
56141;SDS011;42018;48.588;10.836;2024-03-02T02:51:39;13.77;;;10.07;;
56141;SDS011;42018;48.588;10.836;2024-03-02T02:54:24;13.43;;;9.02;;
56141;SDS011;42018;48.588;10.836;2024-03-02T02:57:09;12.10;;;8.77;;
56141;SDS011;42018;48.588;10.836;2024-03-02T02:59:55;11.50;;;7.97;;
56141;SDS011;42018;48.588;10.836;2024-03-02T03:02:41;12.82;;;8.88;;
56141;SDS011;42018;48.588;10.836;2024-03-02T03:05:27;11.73;;;8.50;;
56141;SDS011;42018;48.588;10.836;2024-03-02T03:08:15;14.82;;;10.30;;
56141;SDS011;42018;48.588;10.836;2024-03-02T03:11:01;14.90;;;11.52;;
56141;SDS011;42018;48.588;10.836;2024-03-02T03:13:47;14.65;;;11.18;;
56141;SDS011;42018;48.588;10.836;2024-03-02T03:16:33;15.48;;;10.98;;
56141;SDS011;42018;48.588;10.836;2024-03-02T03:19:19;14.60;;;10.85;;
56141;SDS011;42018;48.588;10.836;2024-03-02T03:22:04;16.10;;;11.32;;
56141;SDS011;42018;48.588;10.836;2024-03-02T03:24:50;15.95;;;10.98;;
56141;SDS011;42018;48.588;10.836;2024-03-02T03:27:35;12.52;;;8.98;;
56141;SDS011;42018;48.588;10.836;2024-03-02T03:30:21;14.77;;;9.85;;
56141;SDS011;42018;48.588;10.836;2024-03-02T03:33:06;14.13;;;10.38;;
56141;SDS011;42018;48.588;10.836;2024-03-02T03:35:52;13.55;;;10.73;;
56141;SDS011;42018;48.588;10.836;2024-03-02T03:38:38;12.95;;;9.32;;
56141;SDS011;42018;48.588;10.836;2024-03-02T03:41:24;12.45;;;9.30;;
56141;SDS011;42018;48.588;10.836;2024-03-02T03:44:09;13.70;;;10.70;;
56141;SDS011;42018;48.588;10.836;2024-03-02T03:46:55;14.50;;;10.75;;
56141;SDS011;42018;48.588;10.836;2024-03-02T03:49:40;14.52;;;10.93;;
56141;SDS011;42018;48.588;10.836;2024-03-02T03:52:26;12.85;;;10.15;;
56141;SDS011;42018;48.588;10.836;2024-03-02T03:55:11;13.10;;;9.63;;
56141;SDS011;42018;48.588;10.836;2024-03-02T03:57:57;14.40;;;9.43;;
56141;SDS011;42018;48.588;10.836;2024-03-02T04:00:42;14.85;;;9.13;;
56141;SDS011;42018;48.588;10.836;2024-03-02T04:03:28;14.50;;;9.82;;
56141;SDS011;42018;48.588;10.836;2024-03-02T04:06:13;15.25;;;10.18;;
56141;SDS011;42018;48.588;10.836;2024-03-02T04:08:59;13.38;;;9.77;;
56141;SDS011;42018;48.588;10.836;2024-03-02T04:11:44;13.63;;;9.88;;
56141;SDS011;42018;48.588;10.836;2024-03-02T04:14:30;13.48;;;9.90;;
56141;SDS011;42018;48.588;10.836;2024-03-02T04:17:15;11.40;;;8.05;;
56141;SDS011;42018;48.588;10.836;2024-03-02T04:20:01;13.35;;;9.18;;
56141;SDS011;42018;48.588;10.836;2024-03-02T04:22:47;13.65;;;9.85;;
56141;SDS011;42018;48.588;10.836;2024-03-02T04:25:32;12.88;;;9.73;;
56141;SDS011;42018;48.588;10.836;2024-03-02T04:28:18;13.52;;;9.38;;
56141;SDS011;42018;48.588;10.836;2024-03-02T04:31:03;12.75;;;9.80;;
56141;SDS011;42018;48.588;10.836;2024-03-02T04:33:49;10.98;;;8.55;;
56141;SDS011;42018;48.588;10.836;2024-03-02T04:36:34;13.38;;;8.90;;
56141;SDS011;42018;48.588;10.836;2024-03-02T04:39:20;11.27;;;8.20;;
56141;SDS011;42018;48.588;10.836;2024-03-02T04:42:05;11.88;;;8.90;;
56141;SDS011;42018;48.588;10.836;2024-03-02T04:44:51;12.65;;;9.48;;
56141;SDS011;42018;48.588;10.836;2024-03-02T04:47:36;12.80;;;9.20;;
56141;SDS011;42018;48.588;10.836;2024-03-02T04:50:22;11.40;;;8.32;;
56141;SDS011;42018;48.588;10.836;2024-03-02T04:53:07;11.52;;;8.10;;
56141;SDS011;42018;48.588;10.836;2024-03-02T04:55:53;11.75;;;8.25;;
56141;SDS011;42018;48.588;10.836;2024-03-02T04:58:57;13.25;;;10.57;;
56141;SDS011;42018;48.588;10.836;2024-03-02T05:01:43;11.20;;;8.60;;
56141;SDS011;42018;48.588;10.836;2024-03-02T05:04:29;11.75;;;8.32;;
56141;SDS011;42018;48.588;10.836;2024-03-02T05:07:15;15.10;;;9.85;;
56141;SDS011;42018;48.588;10.836;2024-03-02T05:10:01;13.77;;;10.18;;
56141;SDS011;42018;48.588;10.836;2024-03-02T05:12:46;14.55;;;9.85;;
56141;SDS011;42018;48.588;10.836;2024-03-02T05:15:41;15.05;;;10.18;;
56141;SDS011;42018;48.588;10.836;2024-03-02T05:18:28;12.00;;;8.73;;
56141;SDS011;42018;48.588;10.836;2024-03-02T05:21:14;14.88;;;10.40;;
56141;SDS011;42018;48.588;10.836;2024-03-02T05:23:59;18.98;;;10.88;;
56141;SDS011;42018;48.588;10.836;2024-03-02T05:26:45;15.10;;;10.82;;
56141;SDS011;42018;48.588;10.836;2024-03-02T05:29:31;15.10;;;10.98;;
56141;SDS011;42018;48.588;10.836;2024-03-02T05:32:16;14.80;;;10.68;;
56141;SDS011;42018;48.588;10.836;2024-03-02T05:35:02;13.60;;;9.82;;
56141;SDS011;42018;48.588;10.836;2024-03-02T05:37:48;16.17;;;10.20;;
56141;SDS011;42018;48.588;10.836;2024-03-02T05:40:33;15.55;;;10.13;;
56141;SDS011;42018;48.588;10.836;2024-03-02T05:43:19;13.73;;;10.50;;
56141;SDS011;42018;48.588;10.836;2024-03-02T05:46:05;15.05;;;10.13;;
56141;SDS011;42018;48.588;10.836;2024-03-02T05:48:50;12.80;;;9.40;;
56141;SDS011;42018;48.588;10.836;2024-03-02T05:51:36;15.93;;;9.93;;
56141;SDS011;42018;48.588;10.836;2024-03-02T05:54:21;13.85;;;10.15;;
56141;SDS011;42018;48.588;10.836;2024-03-02T05:57:07;13.20;;;9.55;;
56141;SDS011;42018;48.588;10.836;2024-03-02T06:00:07;13.68;;;8.57;;
56141;SDS011;42018;48.588;10.836;2024-03-02T06:02:58;12.50;;;9.13;;
56141;SDS011;42018;48.588;10.836;2024-03-02T06:05:43;14.02;;;10.35;;
56141;SDS011;42018;48.588;10.836;2024-03-02T06:08:29;12.27;;;9.05;;
56141;SDS011;42018;48.588;10.836;2024-03-02T06:11:14;20.52;;;7.50;;
56141;SDS011;42018;48.588;10.836;2024-03-02T06:14:00;10.30;;;6.43;;
56141;SDS011;42018;48.588;10.836;2024-03-02T06:16:45;7.32;;;5.72;;
56141;SDS011;42018;48.588;10.836;2024-03-02T06:19:31;8.50;;;5.55;;
56141;SDS011;42018;48.588;10.836;2024-03-02T06:22:16;8.75;;;6.57;;
56141;SDS011;42018;48.588;10.836;2024-03-02T06:25:02;8.48;;;6.05;;
56141;SDS011;42018;48.588;10.836;2024-03-02T06:27:47;10.10;;;7.28;;
56141;SDS011;42018;48.588;10.836;2024-03-02T06:30:33;9.75;;;7.28;;
56141;SDS011;42018;48.588;10.836;2024-03-02T06:33:18;10.02;;;7.63;;
56141;SDS011;42018;48.588;10.836;2024-03-02T06:36:04;11.90;;;7.15;;
56141;SDS011;42018;48.588;10.836;2024-03-02T06:38:50;9.93;;;6.82;;
56141;SDS011;42018;48.588;10.836;2024-03-02T06:41:35;11.73;;;8.43;;
56141;SDS011;42018;48.588;10.836;2024-03-02T06:44:22;15.73;;;8.60;;
56141;SDS011;42018;48.588;10.836;2024-03-02T06:47:08;9.80;;;7.40;;
56141;SDS011;42018;48.588;10.836;2024-03-02T06:49:53;9.95;;;6.70;;
56141;SDS011;42018;48.588;10.836;2024-03-02T06:52:39;9.75;;;7.28;;
56141;SDS011;42018;48.588;10.836;2024-03-02T06:55:24;9.23;;;6.93;;
56141;SDS011;42018;48.588;10.836;2024-03-02T06:58:11;11.60;;;8.13;;
56141;SDS011;42018;48.588;10.836;2024-03-02T07:01:00;9.57;;;7.38;;
56141;SDS011;42018;48.588;10.836;2024-03-02T07:03:46;11.63;;;8.90;;
56141;SDS011;42018;48.588;10.836;2024-03-02T07:06:31;11.35;;;8.45;;
56141;SDS011;42018;48.588;10.836;2024-03-02T07:09:17;14.20;;;9.50;;
56141;SDS011;42018;48.588;10.836;2024-03-02T07:12:02;14.32;;;9.60;;
56141;SDS011;42018;48.588;10.836;2024-03-02T07:14:48;15.20;;;11.10;;
56141;SDS011;42018;48.588;10.836;2024-03-02T07:17:49;16.55;;;11.40;;
56141;SDS011;42018;48.588;10.836;2024-03-02T07:20:34;13.02;;;9.88;;
56141;SDS011;42018;48.588;10.836;2024-03-02T07:23:19;17.92;;;12.00;;
56141;SDS011;42018;48.588;10.836;2024-03-02T07:26:08;15.43;;;11.65;;
56141;SDS011;42018;48.588;10.836;2024-03-02T07:28:54;15.32;;;11.40;;
56141;SDS011;42018;48.588;10.836;2024-03-02T07:31:39;15.95;;;13.07;;
56141;SDS011;42018;48.588;10.836;2024-03-02T07:34:25;15.50;;;11.73;;
56141;SDS011;42018;48.588;10.836;2024-03-02T07:37:10;15.90;;;12.65;;
56141;SDS011;42018;48.588;10.836;2024-03-02T07:39:56;15.70;;;12.68;;
56141;SDS011;42018;48.588;10.836;2024-03-02T07:42:41;15.68;;;12.05;;
56141;SDS011;42018;48.588;10.836;2024-03-02T07:45:27;16.60;;;12.93;;
56141;SDS011;42018;48.588;10.836;2024-03-02T07:48:13;16.77;;;12.90;;
56141;SDS011;42018;48.588;10.836;2024-03-02T07:50:59;16.60;;;12.80;;
56141;SDS011;42018;48.588;10.836;2024-03-02T07:53:45;17.25;;;12.90;;
56141;SDS011;42018;48.588;10.836;2024-03-02T07:56:30;16.00;;;12.52;;
56141;SDS011;42018;48.588;10.836;2024-03-02T07:59:17;15.73;;;11.63;;
56141;SDS011;42018;48.588;10.836;2024-03-02T08:02:03;15.45;;;12.18;;
56141;SDS011;42018;48.588;10.836;2024-03-02T08:04:48;15.05;;;11.52;;
56141;SDS011;42018;48.588;10.836;2024-03-02T08:07:35;14.98;;;11.65;;
56141;SDS011;42018;48.588;10.836;2024-03-02T08:10:20;16.40;;;12.02;;
56141;SDS011;42018;48.588;10.836;2024-03-02T08:13:06;17.67;;;12.45;;
56141;SDS011;42018;48.588;10.836;2024-03-02T08:15:51;15.27;;;12.60;;
56141;SDS011;42018;48.588;10.836;2024-03-02T08:18:37;16.30;;;12.48;;
56141;SDS011;42018;48.588;10.836;2024-03-02T08:21:23;18.27;;;13.45;;
56141;SDS011;42018;48.588;10.836;2024-03-02T08:24:08;17.63;;;12.52;;
56141;SDS011;42018;48.588;10.836;2024-03-02T08:26:54;18.98;;;12.98;;
56141;SDS011;42018;48.588;10.836;2024-03-02T08:29:40;20.40;;;12.77;;
56141;SDS011;42018;48.588;10.836;2024-03-02T08:32:26;15.80;;;11.43;;
56141;SDS011;42018;48.588;10.836;2024-03-02T08:35:12;16.70;;;11.07;;
56141;SDS011;42018;48.588;10.836;2024-03-02T08:37:57;15.93;;;11.40;;
56141;SDS011;42018;48.588;10.836;2024-03-02T08:40:43;15.35;;;11.32;;
56141;SDS011;42018;48.588;10.836;2024-03-02T08:43:29;16.25;;;12.15;;
56141;SDS011;42018;48.588;10.836;2024-03-02T08:46:15;13.50;;;10.18;;
56141;SDS011;42018;48.588;10.836;2024-03-02T08:49:00;14.70;;;10.70;;
56141;SDS011;42018;48.588;10.836;2024-03-02T08:51:46;15.65;;;11.70;;
56141;SDS011;42018;48.588;10.836;2024-03-02T08:54:39;15.93;;;11.48;;
56141;SDS011;42018;48.588;10.836;2024-03-02T08:57:25;13.88;;;9.30;;
56141;SDS011;42018;48.588;10.836;2024-03-02T09:00:10;14.00;;;9.38;;
56141;SDS011;42018;48.588;10.836;2024-03-02T09:02:56;13.55;;;10.05;;
56141;SDS011;42018;48.588;10.836;2024-03-02T09:05:42;13.02;;;9.48;;
56141;SDS011;42018;48.588;10.836;2024-03-02T09:08:28;13.35;;;9.45;;
56141;SDS011;42018;48.588;10.836;2024-03-02T09:11:13;11.60;;;9.40;;
56141;SDS011;42018;48.588;10.836;2024-03-02T09:13:59;12.88;;;10.15;;
56141;SDS011;42018;48.588;10.836;2024-03-02T09:16:44;12.30;;;9.73;;
56141;SDS011;42018;48.588;10.836;2024-03-02T09:19:30;12.20;;;10.15;;
56141;SDS011;42018;48.588;10.836;2024-03-02T09:22:15;13.70;;;10.98;;
56141;SDS011;42018;48.588;10.836;2024-03-02T09:25:01;14.32;;;10.80;;
56141;SDS011;42018;48.588;10.836;2024-03-02T09:27:46;14.48;;;12.05;;
56141;SDS011;42018;48.588;10.836;2024-03-02T09:30:32;15.20;;;11.30;;
56141;SDS011;42018;48.588;10.836;2024-03-02T09:33:17;11.40;;;10.15;;
56141;SDS011;42018;48.588;10.836;2024-03-02T09:36:03;12.60;;;11.23;;
56141;SDS011;42018;48.588;10.836;2024-03-02T09:38:49;9.63;;;7.50;;
56141;SDS011;42018;48.588;10.836;2024-03-02T09:41:35;10.50;;;7.10;;
56141;SDS011;42018;48.588;10.836;2024-03-02T09:44:22;8.55;;;7.35;;
56141;SDS011;42018;48.588;10.836;2024-03-02T09:47:07;8.70;;;7.75;;
56141;SDS011;42018;48.588;10.836;2024-03-02T09:49:54;9.45;;;6.97;;
56141;SDS011;42018;48.588;10.836;2024-03-02T09:52:42;7.63;;;6.82;;
56141;SDS011;42018;48.588;10.836;2024-03-02T09:55:28;7.80;;;6.60;;
56141;SDS011;42018;48.588;10.836;2024-03-02T09:58:13;8.50;;;6.13;;
56141;SDS011;42018;48.588;10.836;2024-03-02T10:00:59;7.13;;;6.10;;
56141;SDS011;42018;48.588;10.836;2024-03-02T10:03:44;7.03;;;6.22;;
56141;SDS011;42018;48.588;10.836;2024-03-02T10:06:30;6.97;;;5.68;;
56141;SDS011;42018;48.588;10.836;2024-03-02T10:09:28;7.40;;;5.78;;
56141;SDS011;42018;48.588;10.836;2024-03-02T10:12:17;6.55;;;5.70;;
56141;SDS011;42018;48.588;10.836;2024-03-02T10:15:03;6.95;;;5.57;;
56141;SDS011;42018;48.588;10.836;2024-03-02T10:17:50;7.13;;;4.80;;
56141;SDS011;42018;48.588;10.836;2024-03-02T10:20:35;6.93;;;5.20;;
56141;SDS011;42018;48.588;10.836;2024-03-02T10:23:21;8.20;;;5.43;;
56141;SDS011;42018;48.588;10.836;2024-03-02T10:26:17;14.18;;;6.60;;
56141;SDS011;42018;48.588;10.836;2024-03-02T10:29:03;8.88;;;5.88;;
56141;SDS011;42018;48.588;10.836;2024-03-02T10:31:49;7.97;;;6.50;;
56141;SDS011;42018;48.588;10.836;2024-03-02T10:34:35;7.60;;;5.85;;
56141;SDS011;42018;48.588;10.836;2024-03-02T10:37:21;7.63;;;6.70;;
56141;SDS011;42018;48.588;10.836;2024-03-02T10:40:07;8.73;;;7.05;;
56141;SDS011;42018;48.588;10.836;2024-03-02T10:42:55;7.35;;;6.45;;
56141;SDS011;42018;48.588;10.836;2024-03-02T10:45:41;7.78;;;6.60;;
56141;SDS011;42018;48.588;10.836;2024-03-02T10:48:27;10.07;;;7.57;;
56141;SDS011;42018;48.588;10.836;2024-03-02T10:51:14;9.38;;;8.10;;
56141;SDS011;42018;48.588;10.836;2024-03-02T10:54:01;9.13;;;7.82;;
56141;SDS011;42018;48.588;10.836;2024-03-02T10:56:47;8.70;;;7.80;;
56141;SDS011;42018;48.588;10.836;2024-03-02T10:59:34;8.88;;;7.97;;
56141;SDS011;42018;48.588;10.836;2024-03-02T11:02:21;8.68;;;7.70;;
56141;SDS011;42018;48.588;10.836;2024-03-02T11:05:08;8.80;;;7.88;;
56141;SDS011;42018;48.588;10.836;2024-03-02T11:08:02;7.75;;;6.50;;
56141;SDS011;42018;48.588;10.836;2024-03-02T11:10:54;8.25;;;7.35;;
56141;SDS011;42018;48.588;10.836;2024-03-02T11:13:46;10.40;;;9.23;;
56141;SDS011;42018;48.588;10.836;2024-03-02T11:16:35;11.45;;;9.85;;
56141;SDS011;42018;48.588;10.836;2024-03-02T11:19:22;11.88;;;10.55;;
56141;SDS011;42018;48.588;10.836;2024-03-02T11:22:09;12.40;;;11.10;;
56141;SDS011;42018;48.588;10.836;2024-03-02T11:24:56;12.32;;;11.02;;
56141;SDS011;42018;48.588;10.836;2024-03-02T11:33:23;13.73;;;12.32;;
56141;SDS011;42018;48.588;10.836;2024-03-02T11:36:09;13.25;;;11.95;;
56141;SDS011;42018;48.588;10.836;2024-03-02T11:38:55;13.38;;;11.98;;
56141;SDS011;42018;48.588;10.836;2024-03-02T11:41:41;13.00;;;11.65;;
56141;SDS011;42018;48.588;10.836;2024-03-02T11:44:30;14.60;;;12.30;;
56141;SDS011;42018;48.588;10.836;2024-03-02T11:47:18;14.57;;;12.40;;
56141;SDS011;42018;48.588;10.836;2024-03-02T11:50:04;14.88;;;12.55;;
56141;SDS011;42018;48.588;10.836;2024-03-02T11:52:52;14.57;;;13.07;;
56141;SDS011;42018;48.588;10.836;2024-03-02T11:55:38;13.52;;;12.13;;
56141;SDS011;42018;48.588;10.836;2024-03-02T11:58:31;13.25;;;11.90;;
56141;SDS011;42018;48.588;10.836;2024-03-02T12:01:18;13.18;;;11.65;;
56141;SDS011;42018;48.588;10.836;2024-03-02T12:04:05;14.50;;;12.77;;
56141;SDS011;42018;48.588;10.836;2024-03-02T12:06:58;14.45;;;12.80;;
56141;SDS011;42018;48.588;10.836;2024-03-02T12:09:47;14.80;;;11.93;;
56141;SDS011;42018;48.588;10.836;2024-03-02T12:12:32;14.70;;;11.40;;
56141;SDS011;42018;48.588;10.836;2024-03-02T12:15:21;13.60;;;12.20;;
56141;SDS011;42018;48.588;10.836;2024-03-02T12:18:08;12.70;;;11.18;;
56141;SDS011;42018;48.588;10.836;2024-03-02T12:20:54;12.90;;;11.50;;
56141;SDS011;42018;48.588;10.836;2024-03-02T12:23:42;12.43;;;11.13;;
56141;SDS011;42018;48.588;10.836;2024-03-02T12:26:28;12.90;;;11.45;;
56141;SDS011;42018;48.588;10.836;2024-03-02T12:29:14;12.80;;;11.35;;
56141;SDS011;42018;48.588;10.836;2024-03-02T12:32:00;13.48;;;11.00;;
56141;SDS011;42018;48.588;10.836;2024-03-02T12:34:47;11.23;;;9.68;;
56141;SDS011;42018;48.588;10.836;2024-03-02T12:37:33;13.88;;;11.18;;
56141;SDS011;42018;48.588;10.836;2024-03-02T12:40:26;12.65;;;10.27;;
56141;SDS011;42018;48.588;10.836;2024-03-02T12:43:12;12.73;;;9.15;;
56141;SDS011;42018;48.588;10.836;2024-03-02T12:45:58;11.45;;;9.70;;
56141;SDS011;42018;48.588;10.836;2024-03-02T12:48:44;13.45;;;10.05;;
56141;SDS011;42018;48.588;10.836;2024-03-02T12:51:29;13.30;;;10.27;;
56141;SDS011;42018;48.588;10.836;2024-03-02T12:54:15;14.10;;;10.98;;
56141;SDS011;42018;48.588;10.836;2024-03-02T12:57:01;11.45;;;9.27;;
56141;SDS011;42018;48.588;10.836;2024-03-02T12:59:47;12.93;;;10.50;;
56141;SDS011;42018;48.588;10.836;2024-03-02T13:02:33;14.90;;;11.00;;
56141;SDS011;42018;48.588;10.836;2024-03-02T13:05:19;16.67;;;11.43;;
56141;SDS011;42018;48.588;10.836;2024-03-02T13:08:05;14.25;;;10.90;;
56141;SDS011;42018;48.588;10.836;2024-03-02T13:10:52;12.90;;;10.48;;
56141;SDS011;42018;48.588;10.836;2024-03-02T13:13:38;14.02;;;10.85;;
56141;SDS011;42018;48.588;10.836;2024-03-02T13:16:24;14.70;;;12.18;;
56141;SDS011;42018;48.588;10.836;2024-03-02T13:19:11;15.00;;;12.02;;
56141;SDS011;42018;48.588;10.836;2024-03-02T13:21:57;15.50;;;12.48;;
56141;SDS011;42018;48.588;10.836;2024-03-02T13:24:43;13.00;;;11.18;;
56141;SDS011;42018;48.588;10.836;2024-03-02T13:27:29;14.43;;;11.30;;
56141;SDS011;42018;48.588;10.836;2024-03-02T13:30:17;15.43;;;11.20;;
56141;SDS011;42018;48.588;10.836;2024-03-02T13:33:02;13.07;;;10.52;;
56141;SDS011;42018;48.588;10.836;2024-03-02T13:35:51;13.48;;;11.25;;
56141;SDS011;42018;48.588;10.836;2024-03-02T13:38:37;14.32;;;11.45;;
56141;SDS011;42018;48.588;10.836;2024-03-02T13:41:22;13.68;;;11.50;;
56141;SDS011;42018;48.588;10.836;2024-03-02T13:44:08;16.73;;;13.50;;
56141;SDS011;42018;48.588;10.836;2024-03-02T13:46:54;18.17;;;14.38;;
56141;SDS011;42018;48.588;10.836;2024-03-02T13:49:39;17.40;;;13.57;;
56141;SDS011;42018;48.588;10.836;2024-03-02T13:52:28;17.40;;;14.30;;
56141;SDS011;42018;48.588;10.836;2024-03-02T13:55:15;19.13;;;14.82;;
56141;SDS011;42018;48.588;10.836;2024-03-02T13:58:01;16.80;;;14.30;;
56141;SDS011;42018;48.588;10.836;2024-03-02T14:00:46;18.25;;;14.75;;
56141;SDS011;42018;48.588;10.836;2024-03-02T14:03:32;17.42;;;14.63;;
56141;SDS011;42018;48.588;10.836;2024-03-02T14:06:18;19.08;;;15.30;;
56141;SDS011;42018;48.588;10.836;2024-03-02T14:09:03;18.38;;;15.73;;
56141;SDS011;42018;48.588;10.836;2024-03-02T14:11:49;18.23;;;15.63;;
56141;SDS011;42018;48.588;10.836;2024-03-02T14:14:36;20.42;;;16.35;;
56141;SDS011;42018;48.588;10.836;2024-03-02T14:17:21;19.13;;;16.33;;
56141;SDS011;42018;48.588;10.836;2024-03-02T14:20:07;18.42;;;16.33;;
56141;SDS011;42018;48.588;10.836;2024-03-02T14:22:55;20.52;;;17.55;;
56141;SDS011;42018;48.588;10.836;2024-03-02T14:25:40;19.20;;;16.55;;
56141;SDS011;42018;48.588;10.836;2024-03-02T14:28:26;19.92;;;16.63;;
56141;SDS011;42018;48.588;10.836;2024-03-02T14:31:11;19.13;;;16.08;;
56141;SDS011;42018;48.588;10.836;2024-03-02T14:33:57;18.92;;;15.73;;
56141;SDS011;42018;48.588;10.836;2024-03-02T14:36:43;18.40;;;15.88;;
56141;SDS011;42018;48.588;10.836;2024-03-02T14:39:29;17.60;;;15.52;;
56141;SDS011;42018;48.588;10.836;2024-03-02T14:42:18;17.38;;;15.27;;
56141;SDS011;42018;48.588;10.836;2024-03-02T14:45:04;18.05;;;15.73;;
56141;SDS011;42018;48.588;10.836;2024-03-02T14:47:50;17.35;;;14.73;;
56141;SDS011;42018;48.588;10.836;2024-03-02T14:50:37;17.73;;;15.60;;
56141;SDS011;42018;48.588;10.836;2024-03-02T14:53:22;20.48;;;17.23;;
56141;SDS011;42018;48.588;10.836;2024-03-02T14:56:08;18.48;;;16.45;;
56141;SDS011;42018;48.588;10.836;2024-03-02T14:58:53;19.10;;;16.48;;
56141;SDS011;42018;48.588;10.836;2024-03-02T15:01:39;17.88;;;15.55;;
56141;SDS011;42018;48.588;10.836;2024-03-02T15:04:25;17.90;;;15.15;;
56141;SDS011;42018;48.588;10.836;2024-03-02T15:07:10;17.30;;;14.50;;
56141;SDS011;42018;48.588;10.836;2024-03-02T15:09:56;15.50;;;13.60;;
56141;SDS011;42018;48.588;10.836;2024-03-02T15:12:42;16.15;;;13.35;;
56141;SDS011;42018;48.588;10.836;2024-03-02T15:15:27;15.38;;;12.52;;
56141;SDS011;42018;48.588;10.836;2024-03-02T15:18:13;13.70;;;11.93;;
56141;SDS011;42018;48.588;10.836;2024-03-02T15:20:58;13.85;;;11.88;;
56141;SDS011;42018;48.588;10.836;2024-03-02T15:23:44;15.80;;;12.10;;
56141;SDS011;42018;48.588;10.836;2024-03-02T15:26:29;13.85;;;11.25;;
56141;SDS011;42018;48.588;10.836;2024-03-02T15:29:15;13.45;;;11.30;;
56141;SDS011;42018;48.588;10.836;2024-03-02T15:32:02;13.60;;;11.00;;
56141;SDS011;42018;48.588;10.836;2024-03-02T15:34:55;12.80;;;10.23;;
56141;SDS011;42018;48.588;10.836;2024-03-02T15:37:40;14.13;;;10.68;;
56141;SDS011;42018;48.588;10.836;2024-03-02T15:40:26;13.18;;;10.43;;
56141;SDS011;42018;48.588;10.836;2024-03-02T15:43:11;13.90;;;10.73;;
56141;SDS011;42018;48.588;10.836;2024-03-02T15:45:57;14.63;;;12.18;;
56141;SDS011;42018;48.588;10.836;2024-03-02T15:48:43;15.35;;;12.23;;
56141;SDS011;42018;48.588;10.836;2024-03-02T15:51:28;17.23;;;13.38;;
56141;SDS011;42018;48.588;10.836;2024-03-02T15:54:14;16.60;;;14.07;;
56141;SDS011;42018;48.588;10.836;2024-03-02T15:56:59;17.75;;;14.90;;
56141;SDS011;42018;48.588;10.836;2024-03-02T15:59:45;18.38;;;15.70;;
56141;SDS011;42018;48.588;10.836;2024-03-02T16:02:30;19.75;;;16.40;;
56141;SDS011;42018;48.588;10.836;2024-03-02T16:05:16;18.90;;;15.90;;
56141;SDS011;42018;48.588;10.836;2024-03-02T16:08:02;20.85;;;16.92;;
56141;SDS011;42018;48.588;10.836;2024-03-02T16:10:48;22.13;;;18.08;;
56141;SDS011;42018;48.588;10.836;2024-03-02T16:13:34;22.63;;;18.35;;